createdAt,value
2023-09-29T00:03:33.369Z,14.87
2023-09-29T00:08:37.358Z,14.86
2023-09-29T00:13:43.078Z,14.91
2023-09-29T00:18:46.169Z,14.96
2023-09-29T00:23:49.549Z,15.00
2023-09-29T00:28:54.649Z,14.98
2023-09-29T00:33:58.260Z,14.95
2023-09-29T00:39:01.401Z,14.87
2023-09-29T00:44:07.944Z,14.82
2023-09-29T00:49:12.509Z,14.76
2023-09-29T00:54:16.458Z,14.75
2023-09-29T00:59:20.949Z,14.78
2023-09-29T01:04:24.689Z,14.85
2023-09-29T01:09:28.104Z,14.93
2023-09-29T01:14:33.376Z,14.99
2023-09-29T01:19:36.910Z,15.00
2023-09-29T01:24:41.363Z,15.00
2023-09-29T01:29:45.278Z,14.97
2023-09-29T01:34:48.603Z,15.00
2023-09-29T01:39:53.059Z,15.01
2023-09-29T01:44:56.195Z,15.02
2023-09-29T01:50:00.419Z,15.02
2023-09-29T01:55:07.545Z,15.04
2023-09-29T02:00:16.600Z,15.12
2023-09-29T02:05:19.839Z,15.13
2023-09-29T02:10:25.974Z,15.18
2023-09-29T02:15:30.311Z,15.18
2023-09-29T02:20:37.035Z,15.16
2023-09-29T02:25:42.997Z,15.15
2023-09-29T02:30:47.894Z,15.15
2023-09-29T02:35:51.535Z,15.14
2023-09-29T02:40:56.166Z,15.16
2023-09-29T02:45:59.315Z,15.15
2023-09-29T02:51:02.454Z,15.16
2023-09-29T02:56:07.947Z,15.19
2023-09-29T03:01:13.088Z,15.19
2023-09-29T03:06:20.135Z,15.22
2023-09-29T03:11:26.920Z,15.24
2023-09-29T03:16:30.659Z,15.25
2023-09-29T03:21:34.417Z,15.29
2023-09-29T03:26:39.302Z,15.33
2023-09-29T03:31:42.427Z,15.33
2023-09-29T03:36:45.522Z,15.33
2023-09-29T03:41:50.005Z,15.35
2023-09-29T03:46:55.054Z,15.34
2023-09-29T03:51:58.511Z,15.36
2023-09-29T03:57:05.794Z,15.39
2023-09-29T04:02:09.135Z,15.39
2023-09-29T04:07:12.797Z,15.45
2023-09-29T04:12:17.875Z,15.46
2023-09-29T04:17:21.339Z,15.48
2023-09-29T04:22:25.149Z,15.48
2023-09-29T04:27:29.804Z,15.43
2023-09-29T04:32:32.918Z,15.41
2023-09-29T04:37:36.452Z,15.39
2023-09-29T04:42:41.374Z,15.40
2023-09-29T04:47:44.557Z,15.43
2023-09-29T04:52:47.691Z,15.49
2023-09-29T04:57:53.759Z,15.49
2023-09-29T05:02:57.200Z,15.46
2023-09-29T05:08:00.485Z,15.42
2023-09-29T05:13:05.275Z,15.43
2023-09-29T05:18:08.525Z,15.45
2023-09-29T05:23:11.675Z,15.48
2023-09-29T05:28:16.210Z,15.50
2023-09-29T05:33:19.368Z,15.61
2023-09-29T05:38:22.519Z,15.57
2023-09-29T05:43:27.252Z,15.58
2023-09-29T05:48:30.603Z,15.61
2023-09-29T05:53:33.812Z,15.64
2023-09-29T05:58:39.174Z,15.65
2023-09-29T06:03:42.939Z,15.70
2023-09-29T06:08:55.228Z,15.76
2023-09-29T06:14:00.170Z,15.82
2023-09-29T06:19:03.269Z,15.88
2023-09-29T06:24:07.118Z,15.93
2023-09-29T06:29:11.703Z,15.96
2023-09-29T06:34:15.618Z,16.01
2023-09-29T06:39:19.425Z,16.00
2023-09-29T06:44:24.315Z,16.06
2023-09-29T06:49:27.450Z,16.12
2023-09-29T06:54:30.833Z,16.15
2023-09-29T06:59:35.292Z,16.32
2023-09-29T07:04:38.456Z,16.58
2023-09-29T07:09:41.562Z,16.77
2023-09-29T07:14:46.140Z,16.98
2023-09-29T07:19:49.360Z,17.15
2023-09-29T07:24:59.200Z,17.29
2023-09-29T07:30:04.735Z,17.60
2023-09-29T07:35:08.632Z,17.85
2023-09-29T07:40:13.661Z,17.86
2023-09-29T07:45:18.744Z,17.91
2023-09-29T07:50:22.358Z,18.16
2023-09-29T07:55:26.014Z,18.77
2023-09-29T08:00:30.729Z,18.73
2023-09-29T08:05:33.861Z,18.95
2023-09-29T08:10:37.005Z,19.73
2023-09-29T08:15:41.707Z,20.82
2023-09-29T08:20:45.104Z,20.93
2023-09-29T08:25:48.457Z,21.69
2023-09-29T08:30:52.950Z,21.67
2023-09-29T08:35:56.969Z,21.47
2023-09-29T08:41:03.930Z,21.33
2023-09-29T08:46:11.235Z,21.07
2023-09-29T08:51:15.137Z,20.66
2023-09-29T08:56:19.952Z,20.71
2023-09-29T09:01:25.185Z,21.95
2023-09-29T09:06:29.235Z,22.08
2023-09-29T09:11:42.821Z,22.52
2023-09-29T09:16:47.372Z,23.34
2023-09-29T09:21:50.516Z,24.39
2023-09-29T09:27:02.693Z,25.13
2023-09-29T09:32:08.096Z,25.60
2023-09-29T09:37:13.882Z,25.41
2023-09-29T09:42:18.253Z,25.76
2023-09-29T09:47:26.728Z,25.68
2023-09-29T09:52:31.582Z,25.68
2023-09-29T09:57:35.986Z,26.09
2023-09-29T10:02:45.064Z,26.62
2023-09-29T10:07:48.897Z,26.63
2023-09-29T10:12:55.958Z,26.84
2023-09-29T10:18:00.855Z,26.51
2023-09-29T10:23:07.469Z,26.15
2023-09-29T10:28:13.507Z,26.00
2023-09-29T10:33:18.302Z,25.20
2023-09-29T10:38:25.865Z,24.98
2023-09-29T10:43:28.998Z,24.55
2023-09-29T10:48:34.732Z,24.55
2023-09-29T10:53:40.009Z,24.27
2023-09-29T10:58:43.553Z,24.42
2023-09-29T11:03:48.279Z,24.52
2023-09-29T11:08:56.380Z,24.55
2023-09-29T11:14:00.106Z,24.14
2023-09-29T11:19:13.170Z,23.91
2023-09-29T11:24:20.335Z,23.94
2023-09-29T11:29:24.642Z,24.05
2023-09-29T11:34:30.956Z,23.82
2023-09-29T11:39:35.037Z,23.78
2023-09-29T11:44:38.142Z,23.72
2023-09-29T11:49:42.955Z,23.63
2023-09-29T11:54:46.053Z,24.06
2023-09-29T11:59:49.218Z,25.10
2023-09-29T12:04:53.711Z,26.05
2023-09-29T12:09:57.051Z,26.71
2023-09-29T12:15:01.036Z,27.19
2023-09-29T12:20:09.246Z,27.06
2023-09-29T12:25:13.832Z,26.89
2023-09-29T12:30:18.905Z,26.78
2023-09-29T12:35:23.509Z,26.73
2023-09-29T12:40:26.761Z,26.74
2023-09-29T12:45:29.865Z,27.08
2023-09-29T12:50:40.031Z,27.15
2023-09-29T12:55:43.422Z,27.23
2023-09-29T13:00:47.844Z,27.24
2023-09-29T13:05:52.879Z,27.12
2023-09-29T13:10:56.702Z,26.70
2023-09-29T13:16:01.217Z,26.41
2023-09-29T13:21:05.940Z,26.02
2023-09-29T13:26:09.242Z,25.91
2023-09-29T13:31:12.371Z,25.53
2023-09-29T13:36:16.921Z,25.19
2023-09-29T13:41:20.363Z,24.57
2023-09-29T13:46:23.721Z,23.88
2023-09-29T13:51:28.512Z,23.60
2023-09-29T13:56:32.823Z,23.46
2023-09-29T14:01:36.119Z,23.22
2023-09-29T14:06:40.607Z,22.99
2023-09-29T14:11:43.708Z,22.82
2023-09-29T14:16:47.568Z,22.68
2023-09-29T14:21:52.012Z,22.59
2023-09-29T14:26:55.185Z,22.60
2023-09-29T14:31:58.395Z,22.68
2023-09-29T14:37:03.831Z,22.76
2023-09-29T14:42:06.984Z,22.67
2023-09-29T14:47:10.106Z,22.66
2023-09-29T14:52:14.554Z,22.52
2023-09-29T14:57:19.271Z,22.32
2023-09-29T15:02:22.400Z,22.08
2023-09-29T15:07:27.211Z,21.95
2023-09-29T15:12:30.431Z,21.87
2023-09-29T15:17:33.568Z,21.81
2023-09-29T15:22:37.997Z,21.73
2023-09-29T15:27:41.970Z,21.59
2023-09-29T15:32:45.160Z,21.54
2023-09-29T15:37:49.610Z,21.44
2023-09-29T15:42:52.978Z,21.49
2023-09-29T15:47:57.137Z,21.47
2023-09-29T15:53:02.025Z,21.43
2023-09-29T15:58:05.848Z,21.33
2023-09-29T16:03:09.112Z,21.23
2023-09-29T16:08:13.525Z,21.10
2023-09-29T16:13:18.168Z,21.09
2023-09-29T16:18:21.659Z,21.09
2023-09-29T16:23:27.541Z,21.17
2023-09-29T16:28:30.665Z,21.09
2023-09-29T16:33:33.840Z,21.10
2023-09-29T16:38:38.802Z,21.02
2023-09-29T16:43:42.974Z,20.88
2023-09-29T16:48:48.259Z,20.86
2023-09-29T16:53:52.714Z,20.86
2023-09-29T16:58:56.942Z,20.81
2023-09-29T17:04:00.228Z,20.70
2023-09-29T17:09:05.269Z,20.56
2023-09-29T17:14:08.895Z,20.47
2023-09-29T17:19:12.299Z,20.25
2023-09-29T17:24:16.817Z,20.16
2023-09-29T17:29:19.933Z,20.05
2023-09-29T17:34:23.032Z,20.06
2023-09-29T17:39:28.283Z,20.02
2023-09-29T17:44:31.452Z,19.91
2023-09-29T17:49:34.952Z,20.00
2023-09-29T17:54:39.441Z,20.06
2023-09-29T17:59:42.591Z,19.96
2023-09-29T18:04:46.591Z,19.77
2023-09-29T18:09:51.168Z,19.88
2023-09-29T18:14:54.847Z,19.79
2023-09-29T18:19:58.396Z,19.53
2023-09-29T18:25:03.379Z,19.43
2023-09-29T18:30:07.999Z,19.27
2023-09-29T18:35:12.399Z,19.25
2023-09-29T18:40:17.359Z,19.45
2023-09-29T18:45:20.638Z,19.52
2023-09-29T18:50:25.205Z,19.53
2023-09-29T18:55:29.859Z,19.59
2023-09-29T19:00:33.801Z,19.61
2023-09-29T19:05:38.882Z,19.55
2023-09-29T19:10:44.151Z,19.48
2023-09-29T19:15:49.110Z,19.41
2023-09-29T19:20:53.920Z,19.34
2023-09-29T19:26:01.418Z,19.17
2023-09-29T19:31:04.540Z,18.78
2023-09-29T19:36:08.133Z,18.38
2023-09-29T19:41:15.094Z,18.18
2023-09-29T19:46:18.442Z,18.01
2023-09-29T19:51:23.144Z,17.84
2023-09-29T19:56:34.206Z,17.73
2023-09-29T20:01:37.632Z,17.67
2023-09-29T20:06:40.740Z,17.54
2023-09-29T20:11:45.226Z,17.52
2023-09-29T20:16:48.588Z,17.50
2023-09-29T20:21:51.830Z,17.21
2023-09-29T20:26:56.640Z,17.01
2023-09-29T20:32:00.018Z,16.76
2023-09-29T20:37:03.226Z,16.67
2023-09-29T20:42:13.053Z,16.53
2023-09-29T20:47:16.183Z,16.42
2023-09-29T20:52:19.682Z,16.30
2023-09-29T20:57:25.231Z,16.28
2023-09-29T21:02:28.376Z,16.20
2023-09-29T21:07:31.438Z,16.12
2023-09-29T21:12:35.917Z,16.03
2023-09-29T21:17:39.301Z,15.98
2023-09-29T21:22:44.159Z,15.90
2023-09-29T21:27:48.910Z,15.81
2023-09-29T21:32:52.700Z,15.69
2023-09-29T21:37:56.182Z,15.67
2023-09-29T21:43:00.615Z,15.73
2023-09-29T21:48:03.981Z,15.69
2023-09-29T21:53:07.483Z,15.69
2023-09-29T21:58:11.927Z,15.62
2023-09-29T22:03:15.311Z,15.63
2023-09-29T22:08:18.765Z,15.54
2023-09-29T22:13:23.854Z,15.52
2023-09-29T22:18:27.249Z,15.51
2023-09-29T22:23:31.962Z,15.50
2023-09-29T22:28:37.171Z,15.49
2023-09-29T22:33:40.422Z,15.48
2023-09-29T22:38:43.722Z,15.43
2023-09-29T22:43:48.752Z,15.39
2023-09-29T22:48:52.129Z,15.37
2023-09-29T22:53:56.078Z,15.36
2023-09-29T22:59:00.786Z,15.31
2023-09-29T23:04:04.541Z,15.29
2023-09-29T23:09:08.479Z,15.25
2023-09-29T23:14:15.804Z,15.21
2023-09-29T23:19:18.886Z,15.14
2023-09-29T23:24:22.467Z,15.27
2023-09-29T23:29:28.396Z,15.29
2023-09-29T23:34:31.534Z,15.30
2023-09-29T23:39:34.742Z,15.32
2023-09-29T23:44:39.704Z,15.35
2023-09-29T23:49:43.034Z,15.37
2023-09-29T23:54:47.658Z,15.35
2023-09-29T23:59:52.098Z,15.33
